sensor_id;sensor_type;location;lat;lon;timestamp;temperature;humidity
27667;DHT22;15074;50.940;5.282;2023-06-10T00:02:21;22.00;99.90
27667;DHT22;15074;50.940;5.282;2023-06-10T00:04:46;22.00;99.90
27667;DHT22;15074;50.940;5.282;2023-06-10T00:07:13;22.00;99.90
27667;DHT22;15074;50.940;5.282;2023-06-10T00:09:38;22.00;99.90
27667;DHT22;15074;50.940;5.282;2023-06-10T00:12:08;22.00;99.90
27667;DHT22;15074;50.940;5.282;2023-06-10T00:14:38;21.90;99.90
27667;DHT22;15074;50.940;5.282;2023-06-10T00:17:05;21.90;99.90
27667;DHT22;15074;50.940;5.282;2023-06-10T00:19:37;21.90;99.90
27667;DHT22;15074;50.940;5.282;2023-06-10T00:22:07;21.90;99.90
27667;DHT22;15074;50.940;5.282;2023-06-10T00:24:32;21.80;99.90
27667;DHT22;15074;50.940;5.282;2023-06-10T00:26:58;21.90;99.90
27667;DHT22;15074;50.940;5.282;2023-06-10T00:29:24;21.90;99.90
27667;DHT22;15074;50.940;5.282;2023-06-10T00:31:49;21.90;99.90
27667;DHT22;15074;50.940;5.282;2023-06-10T00:34:15;21.80;99.90
27667;DHT22;15074;50.940;5.282;2023-06-10T00:36:41;21.80;99.90
27667;DHT22;15074;50.940;5.282;2023-06-10T00:39:06;21.70;99.90
27667;DHT22;15074;50.940;5.282;2023-06-10T00:41:32;21.70;99.90
27667;DHT22;15074;50.940;5.282;2023-06-10T00:43:59;21.60;99.90
27667;DHT22;15074;50.940;5.282;2023-06-10T00:46:25;21.60;99.90
27667;DHT22;15074;50.940;5.282;2023-06-10T00:48:52;21.60;99.90
27667;DHT22;15074;50.940;5.282;2023-06-10T00:51:18;21.50;99.90
27667;DHT22;15074;50.940;5.282;2023-06-10T00:53:44;21.50;99.90
27667;DHT22;15074;50.940;5.282;2023-06-10T00:56:10;21.50;99.90
27667;DHT22;15074;50.940;5.282;2023-06-10T00:58:36;21.40;99.90
27667;DHT22;15074;50.940;5.282;2023-06-10T01:01:02;21.40;99.90
27667;DHT22;15074;50.940;5.282;2023-06-10T01:03:29;21.40;99.90
27667;DHT22;15074;50.940;5.282;2023-06-10T01:06:14;21.40;99.90
27667;DHT22;15074;50.940;5.282;2023-06-10T01:08:55;21.30;99.90
27667;DHT22;15074;50.940;5.282;2023-06-10T01:11:28;21.30;99.90
27667;DHT22;15074;50.940;5.282;2023-06-10T01:13:55;21.20;99.90
27667;DHT22;15074;50.940;5.282;2023-06-10T01:16:22;21.20;99.90
27667;DHT22;15074;50.940;5.282;2023-06-10T01:18:48;21.20;99.90
27667;DHT22;15074;50.940;5.282;2023-06-10T01:21:21;21.20;99.90
27667;DHT22;15074;50.940;5.282;2023-06-10T01:23:51;21.20;99.90
27667;DHT22;15074;50.940;5.282;2023-06-10T01:26:17;21.10;99.90
27667;DHT22;15074;50.940;5.282;2023-06-10T01:29:07;21.10;99.90
27667;DHT22;15074;50.940;5.282;2023-06-10T01:32:12;21.10;99.90
27667;DHT22;15074;50.940;5.282;2023-06-10T01:34:30;21.10;99.90
27667;DHT22;15074;50.940;5.282;2023-06-10T01:36:57;21.10;99.90
27667;DHT22;15074;50.940;5.282;2023-06-10T01:39:24;21.00;99.90
27667;DHT22;15074;50.940;5.282;2023-06-10T01:41:51;21.00;99.90
27667;DHT22;15074;50.940;5.282;2023-06-10T01:44:20;21.00;99.90
27667;DHT22;15074;50.940;5.282;2023-06-10T01:46:46;21.00;99.90
27667;DHT22;15074;50.940;5.282;2023-06-10T01:49:12;20.90;99.90
27667;DHT22;15074;50.940;5.282;2023-06-10T01:51:38;20.80;99.90
27667;DHT22;15074;50.940;5.282;2023-06-10T01:54:04;20.90;99.90
27667;DHT22;15074;50.940;5.282;2023-06-10T01:56:29;20.80;99.90
27667;DHT22;15074;50.940;5.282;2023-06-10T01:58:55;20.90;99.90
27667;DHT22;15074;50.940;5.282;2023-06-10T02:01:25;20.70;99.90
27667;DHT22;15074;50.940;5.282;2023-06-10T02:03:50;20.70;99.90
27667;DHT22;15074;50.940;5.282;2023-06-10T02:06:16;20.70;99.90
27667;DHT22;15074;50.940;5.282;2023-06-10T02:08:42;20.70;99.90
27667;DHT22;15074;50.940;5.282;2023-06-10T02:11:08;20.60;99.90
27667;DHT22;15074;50.940;5.282;2023-06-10T02:13:34;20.50;99.90
27667;DHT22;15074;50.940;5.282;2023-06-10T02:16:00;20.50;99.90
27667;DHT22;15074;50.940;5.282;2023-06-10T02:18:26;20.50;99.90
27667;DHT22;15074;50.940;5.282;2023-06-10T02:20:53;20.50;99.90
27667;DHT22;15074;50.940;5.282;2023-06-10T02:23:19;20.40;99.90
27667;DHT22;15074;50.940;5.282;2023-06-10T02:25:45;20.40;99.90
27667;DHT22;15074;50.940;5.282;2023-06-10T02:28:13;20.40;99.90
27667;DHT22;15074;50.940;5.282;2023-06-10T02:30:40;20.30;99.90
27667;DHT22;15074;50.940;5.282;2023-06-10T02:33:06;20.40;99.90
27667;DHT22;15074;50.940;5.282;2023-06-10T02:35:36;20.40;99.90
27667;DHT22;15074;50.940;5.282;2023-06-10T02:38:02;20.40;99.90
27667;DHT22;15074;50.940;5.282;2023-06-10T02:40:28;20.30;99.90
27667;DHT22;15074;50.940;5.282;2023-06-10T02:42:53;20.30;99.90
27667;DHT22;15074;50.940;5.282;2023-06-10T02:45:19;20.30;99.90
27667;DHT22;15074;50.940;5.282;2023-06-10T02:47:45;20.30;99.90
27667;DHT22;15074;50.940;5.282;2023-06-10T02:50:11;20.30;99.90
27667;DHT22;15074;50.940;5.282;2023-06-10T02:52:36;20.30;99.90
27667;DHT22;15074;50.940;5.282;2023-06-10T02:55:02;20.20;99.90
27667;DHT22;15074;50.940;5.282;2023-06-10T02:57:28;20.20;99.90
27667;DHT22;15074;50.940;5.282;2023-06-10T02:59:53;20.20;99.90
27667;DHT22;15074;50.940;5.282;2023-06-10T03:02:19;20.10;99.90
27667;DHT22;15074;50.940;5.282;2023-06-10T03:04:45;20.10;99.90
27667;DHT22;15074;50.940;5.282;2023-06-10T03:07:11;20.10;99.90
27667;DHT22;15074;50.940;5.282;2023-06-10T03:09:37;20.10;99.90
27667;DHT22;15074;50.940;5.282;2023-06-10T03:12:02;20.00;99.90
27667;DHT22;15074;50.940;5.282;2023-06-10T03:14:28;20.00;99.90
27667;DHT22;15074;50.940;5.282;2023-06-10T03:16:54;19.90;99.90
27667;DHT22;15074;50.940;5.282;2023-06-10T03:19:20;19.90;99.90
27667;DHT22;15074;50.940;5.282;2023-06-10T03:22:07;19.90;99.90
27667;DHT22;15074;50.940;5.282;2023-06-10T03:24:33;19.90;99.90
27667;DHT22;15074;50.940;5.282;2023-06-10T03:26:59;19.90;99.90
27667;DHT22;15074;50.940;5.282;2023-06-10T03:29:25;19.80;99.90
27667;DHT22;15074;50.940;5.282;2023-06-10T03:31:51;19.80;99.90
27667;DHT22;15074;50.940;5.282;2023-06-10T03:34:17;19.80;99.90
27667;DHT22;15074;50.940;5.282;2023-06-10T03:36:42;19.80;99.90
27667;DHT22;15074;50.940;5.282;2023-06-10T03:39:08;19.70;99.90
27667;DHT22;15074;50.940;5.282;2023-06-10T03:41:35;19.80;99.90
27667;DHT22;15074;50.940;5.282;2023-06-10T03:44:00;19.80;99.90
27667;DHT22;15074;50.940;5.282;2023-06-10T03:46:26;19.80;99.90
27667;DHT22;15074;50.940;5.282;2023-06-10T03:48:51;19.80;99.90
27667;DHT22;15074;50.940;5.282;2023-06-10T03:51:17;19.80;99.90
27667;DHT22;15074;50.940;5.282;2023-06-10T03:53:43;19.80;99.90
27667;DHT22;15074;50.940;5.282;2023-06-10T03:56:08;19.80;99.90
27667;DHT22;15074;50.940;5.282;2023-06-10T03:58:34;19.80;99.90
27667;DHT22;15074;50.940;5.282;2023-06-10T04:01:00;19.80;99.90
27667;DHT22;15074;50.940;5.282;2023-06-10T04:03:25;19.90;99.90
27667;DHT22;15074;50.940;5.282;2023-06-10T04:05:51;19.90;99.90
27667;DHT22;15074;50.940;5.282;2023-06-10T04:08:17;19.90;99.90
27667;DHT22;15074;50.940;5.282;2023-06-10T04:10:43;20.00;99.90
27667;DHT22;15074;50.940;5.282;2023-06-10T04:13:09;20.00;99.90
27667;DHT22;15074;50.940;5.282;2023-06-10T04:15:35;20.00;99.90
27667;DHT22;15074;50.940;5.282;2023-06-10T04:18:01;20.00;99.90
27667;DHT22;15074;50.940;5.282;2023-06-10T04:20:27;20.00;99.90
27667;DHT22;15074;50.940;5.282;2023-06-10T04:22:53;20.10;99.90
27667;DHT22;15074;50.940;5.282;2023-06-10T04:25:19;20.10;99.90
27667;DHT22;15074;50.940;5.282;2023-06-10T04:27:45;20.10;99.90
27667;DHT22;15074;50.940;5.282;2023-06-10T04:30:11;20.20;99.90
27667;DHT22;15074;50.940;5.282;2023-06-10T04:32:37;20.20;99.90
27667;DHT22;15074;50.940;5.282;2023-06-10T04:35:03;20.30;99.90
27667;DHT22;15074;50.940;5.282;2023-06-10T04:37:29;20.40;99.90
27667;DHT22;15074;50.940;5.282;2023-06-10T04:39:54;20.70;99.90
27667;DHT22;15074;50.940;5.282;2023-06-10T04:42:20;21.10;99.90
27667;DHT22;15074;50.940;5.282;2023-06-10T04:44:46;21.60;99.90
27667;DHT22;15074;50.940;5.282;2023-06-10T04:47:11;21.90;99.90
27667;DHT22;15074;50.940;5.282;2023-06-10T04:49:37;22.30;99.90
27667;DHT22;15074;50.940;5.282;2023-06-10T04:52:03;22.50;99.90
27667;DHT22;15074;50.940;5.282;2023-06-10T04:54:30;22.60;99.90
27667;DHT22;15074;50.940;5.282;2023-06-10T04:56:55;23.00;99.90
27667;DHT22;15074;50.940;5.282;2023-06-10T04:59:21;23.30;99.90
27667;DHT22;15074;50.940;5.282;2023-06-10T05:01:47;23.30;99.90
27667;DHT22;15074;50.940;5.282;2023-06-10T05:04:12;23.60;99.90
27667;DHT22;15074;50.940;5.282;2023-06-10T05:06:38;23.70;99.90
27667;DHT22;15074;50.940;5.282;2023-06-10T05:09:04;23.90;99.90
27667;DHT22;15074;50.940;5.282;2023-06-10T05:11:29;23.90;99.90
27667;DHT22;15074;50.940;5.282;2023-06-10T05:13:55;24.40;99.90
27667;DHT22;15074;50.940;5.282;2023-06-10T05:16:20;24.40;99.90
27667;DHT22;15074;50.940;5.282;2023-06-10T05:18:46;24.30;99.90
27667;DHT22;15074;50.940;5.282;2023-06-10T05:21:12;24.10;99.90
27667;DHT22;15074;50.940;5.282;2023-06-10T05:23:38;24.30;99.90
27667;DHT22;15074;50.940;5.282;2023-06-10T05:26:03;24.50;99.90
27667;DHT22;15074;50.940;5.282;2023-06-10T05:28:29;24.80;99.90
27667;DHT22;15074;50.940;5.282;2023-06-10T05:30:54;24.60;99.90
27667;DHT22;15074;50.940;5.282;2023-06-10T05:33:20;25.00;99.90
27667;DHT22;15074;50.940;5.282;2023-06-10T05:35:46;25.50;99.90
27667;DHT22;15074;50.940;5.282;2023-06-10T05:38:11;26.00;99.90
27667;DHT22;15074;50.940;5.282;2023-06-10T05:40:37;25.90;99.90
27667;DHT22;15074;50.940;5.282;2023-06-10T05:43:03;25.60;99.90
27667;DHT22;15074;50.940;5.282;2023-06-10T05:45:28;25.90;99.90
27667;DHT22;15074;50.940;5.282;2023-06-10T05:47:54;26.30;99.90
27667;DHT22;15074;50.940;5.282;2023-06-10T05:50:21;26.80;99.90
27667;DHT22;15074;50.940;5.282;2023-06-10T05:52:46;26.60;99.90
27667;DHT22;15074;50.940;5.282;2023-06-10T05:55:12;26.40;99.90
27667;DHT22;15074;50.940;5.282;2023-06-10T05:57:38;26.60;99.90
27667;DHT22;15074;50.940;5.282;2023-06-10T06:00:04;27.50;99.90
27667;DHT22;15074;50.940;5.282;2023-06-10T06:02:30;27.70;99.90
27667;DHT22;15074;50.940;5.282;2023-06-10T06:04:55;27.30;99.90
27667;DHT22;15074;50.940;5.282;2023-06-10T06:07:21;28.10;99.90
27667;DHT22;15074;50.940;5.282;2023-06-10T06:09:47;28.00;99.90
27667;DHT22;15074;50.940;5.282;2023-06-10T06:12:13;27.30;99.90
27667;DHT22;15074;50.940;5.282;2023-06-10T06:14:39;27.00;99.90
27667;DHT22;15074;50.940;5.282;2023-06-10T06:17:06;27.20;99.90
27667;DHT22;15074;50.940;5.282;2023-06-10T06:19:31;27.70;99.90
27667;DHT22;15074;50.940;5.282;2023-06-10T06:21:57;28.20;99.90
27667;DHT22;15074;50.940;5.282;2023-06-10T06:24:23;29.30;98.90
27667;DHT22;15074;50.940;5.282;2023-06-10T06:26:48;29.40;97.20
27667;DHT22;15074;50.940;5.282;2023-06-10T06:29:14;29.10;97.70
27667;DHT22;15074;50.940;5.282;2023-06-10T06:31:40;29.00;97.30
27667;DHT22;15074;50.940;5.282;2023-06-10T06:34:05;29.70;96.40
27667;DHT22;15074;50.940;5.282;2023-06-10T06:36:31;30.20;95.30
27667;DHT22;15074;50.940;5.282;2023-06-10T06:38:56;30.40;94.70
27667;DHT22;15074;50.940;5.282;2023-06-10T06:41:26;30.30;94.90
27667;DHT22;15074;50.940;5.282;2023-06-10T06:43:54;30.70;93.60
27667;DHT22;15074;50.940;5.282;2023-06-10T06:46:19;30.70;93.10
27667;DHT22;15074;50.940;5.282;2023-06-10T06:48:46;29.40;94.20
27667;DHT22;15074;50.940;5.282;2023-06-10T06:51:12;28.50;95.80
27667;DHT22;15074;50.940;5.282;2023-06-10T06:53:39;29.40;95.00
27667;DHT22;15074;50.940;5.282;2023-06-10T06:56:10;30.70;93.80
27667;DHT22;15074;50.940;5.282;2023-06-10T06:58:36;31.20;92.50
27667;DHT22;15074;50.940;5.282;2023-06-10T07:01:01;31.10;91.30
27667;DHT22;15074;50.940;5.282;2023-06-10T07:03:27;30.60;92.50
27667;DHT22;15074;50.940;5.282;2023-06-10T07:05:52;31.00;91.70
27667;DHT22;15074;50.940;5.282;2023-06-10T07:08:18;31.20;91.40
27667;DHT22;15074;50.940;5.282;2023-06-10T07:10:44;31.70;90.80
27667;DHT22;15074;50.940;5.282;2023-06-10T07:13:10;32.20;90.00
27667;DHT22;15074;50.940;5.282;2023-06-10T07:15:36;32.50;89.90
27667;DHT22;15074;50.940;5.282;2023-06-10T07:18:01;32.70;88.00
27667;DHT22;15074;50.940;5.282;2023-06-10T07:20:27;32.60;88.00
27667;DHT22;15074;50.940;5.282;2023-06-10T07:22:53;32.30;88.00
27667;DHT22;15074;50.940;5.282;2023-06-10T07:25:19;32.70;86.60
27667;DHT22;15074;50.940;5.282;2023-06-10T07:27:44;33.10;85.00
27667;DHT22;15074;50.940;5.282;2023-06-10T07:30:10;31.80;85.60
27667;DHT22;15074;50.940;5.282;2023-06-10T07:32:36;32.20;85.80
27667;DHT22;15074;50.940;5.282;2023-06-10T07:35:02;31.80;86.40
27667;DHT22;15074;50.940;5.282;2023-06-10T07:37:28;31.90;86.70
27667;DHT22;15074;50.940;5.282;2023-06-10T07:39:54;32.70;85.00
27667;DHT22;15074;50.940;5.282;2023-06-10T07:42:20;32.90;83.50
27667;DHT22;15074;50.940;5.282;2023-06-10T07:44:46;31.70;84.60
27667;DHT22;15074;50.940;5.282;2023-06-10T07:47:12;31.10;86.20
27667;DHT22;15074;50.940;5.282;2023-06-10T07:49:38;30.50;88.50
27667;DHT22;15074;50.940;5.282;2023-06-10T07:52:05;32.10;86.10
27667;DHT22;15074;50.940;5.282;2023-06-10T07:54:31;33.10;83.80
27667;DHT22;15074;50.940;5.282;2023-06-10T07:56:56;32.80;82.20
27667;DHT22;15074;50.940;5.282;2023-06-10T07:59:22;32.40;83.10
27667;DHT22;15074;50.940;5.282;2023-06-10T08:01:48;32.30;84.60
27667;DHT22;15074;50.940;5.282;2023-06-10T08:04:14;32.10;83.70
27667;DHT22;15074;50.940;5.282;2023-06-10T08:06:40;32.00;84.30
27667;DHT22;15074;50.940;5.282;2023-06-10T08:09:05;32.20;83.50
27667;DHT22;15074;50.940;5.282;2023-06-10T08:11:31;30.50;86.70
27667;DHT22;15074;50.940;5.282;2023-06-10T08:13:57;30.20;88.20
27667;DHT22;15074;50.940;5.282;2023-06-10T08:16:22;30.80;86.10
27667;DHT22;15074;50.940;5.282;2023-06-10T08:18:48;31.10;85.90
27667;DHT22;15074;50.940;5.282;2023-06-10T08:21:15;31.90;85.70
27667;DHT22;15074;50.940;5.282;2023-06-10T08:23:41;34.00;82.40
27667;DHT22;15074;50.940;5.282;2023-06-10T08:26:07;35.40;79.80
27667;DHT22;15074;50.940;5.282;2023-06-10T08:28:32;33.20;80.70
27667;DHT22;15074;50.940;5.282;2023-06-10T08:30:58;31.80;84.90
27667;DHT22;15074;50.940;5.282;2023-06-10T08:33:24;31.70;84.00
27667;DHT22;15074;50.940;5.282;2023-06-10T08:35:49;31.50;83.70
27667;DHT22;15074;50.940;5.282;2023-06-10T08:38:15;31.20;85.00
27667;DHT22;15074;50.940;5.282;2023-06-10T08:40:41;32.80;82.60
27667;DHT22;15074;50.940;5.282;2023-06-10T08:43:10;33.40;81.90
27667;DHT22;15074;50.940;5.282;2023-06-10T08:45:37;35.00;79.60
27667;DHT22;15074;50.940;5.282;2023-06-10T08:48:06;35.80;77.90
27667;DHT22;15074;50.940;5.282;2023-06-10T08:50:35;35.20;77.50
27667;DHT22;15074;50.940;5.282;2023-06-10T08:53:06;35.30;76.60
27667;DHT22;15074;50.940;5.282;2023-06-10T08:55:38;35.60;76.30
27667;DHT22;15074;50.940;5.282;2023-06-10T08:58:07;33.60;77.00
27667;DHT22;15074;50.940;5.282;2023-06-10T09:00:34;34.10;78.50
27667;DHT22;15074;50.940;5.282;2023-06-10T09:03:00;35.20;75.30
27667;DHT22;15074;50.940;5.282;2023-06-10T09:05:28;36.50;73.80
27667;DHT22;15074;50.940;5.282;2023-06-10T09:07:54;37.20;71.10
27667;DHT22;15074;50.940;5.282;2023-06-10T09:10:21;36.40;69.90
27667;DHT22;15074;50.940;5.282;2023-06-10T09:12:46;37.30;70.30
27667;DHT22;15074;50.940;5.282;2023-06-10T09:15:12;35.30;73.50
27667;DHT22;15074;50.940;5.282;2023-06-10T09:17:40;35.80;73.60
27667;DHT22;15074;50.940;5.282;2023-06-10T09:20:08;35.50;70.60
27667;DHT22;15074;50.940;5.282;2023-06-10T09:22:34;36.80;70.60
27667;DHT22;15074;50.940;5.282;2023-06-10T09:25:12;36.90;69.30
27667;DHT22;15074;50.940;5.282;2023-06-10T09:27:49;36.90;68.90
27667;DHT22;15074;50.940;5.282;2023-06-10T09:30:32;37.60;66.80
27667;DHT22;15074;50.940;5.282;2023-06-10T09:33:03;36.50;68.20
27667;DHT22;15074;50.940;5.282;2023-06-10T09:35:34;36.50;69.50
27667;DHT22;15074;50.940;5.282;2023-06-10T09:38:00;33.80;71.60
27667;DHT22;15074;50.940;5.282;2023-06-10T09:40:28;34.00;70.10
27667;DHT22;15074;50.940;5.282;2023-06-10T09:42:59;32.90;71.60
27667;DHT22;15074;50.940;5.282;2023-06-10T09:45:30;33.00;70.70
27667;DHT22;15074;50.940;5.282;2023-06-10T09:47:57;33.80;70.90
27667;DHT22;15074;50.940;5.282;2023-06-10T09:50:22;35.00;68.30
27667;DHT22;15074;50.940;5.282;2023-06-10T09:52:50;34.40;69.40
27667;DHT22;15074;50.940;5.282;2023-06-10T09:55:16;35.30;67.80
27667;DHT22;15074;50.940;5.282;2023-06-10T09:57:43;33.40;68.50
27667;DHT22;15074;50.940;5.282;2023-06-10T10:00:13;33.40;71.30
27667;DHT22;15074;50.940;5.282;2023-06-10T10:02:49;35.30;68.70
27667;DHT22;15074;50.940;5.282;2023-06-10T10:05:17;36.20;65.10
27667;DHT22;15074;50.940;5.282;2023-06-10T10:07:44;35.50;63.70
27667;DHT22;15074;50.940;5.282;2023-06-10T10:10:11;35.60;63.70
27667;DHT22;15074;50.940;5.282;2023-06-10T10:12:39;34.70;63.10
27667;DHT22;15074;50.940;5.282;2023-06-10T10:15:10;35.60;64.00
27667;DHT22;15074;50.940;5.282;2023-06-10T10:17:50;36.80;62.10
27667;DHT22;15074;50.940;5.282;2023-06-10T10:20:31;36.50;60.90
27667;DHT22;15074;50.940;5.282;2023-06-10T10:22:59;35.60;61.00
27667;DHT22;15074;50.940;5.282;2023-06-10T10:25:38;34.00;61.50
27667;DHT22;15074;50.940;5.282;2023-06-10T10:28:11;32.90;62.60
27667;DHT22;15074;50.940;5.282;2023-06-10T10:30:51;33.30;64.00
27667;DHT22;15074;50.940;5.282;2023-06-10T10:33:31;34.80;63.30
27667;DHT22;15074;50.940;5.282;2023-06-10T10:35:58;35.40;60.50
27667;DHT22;15074;50.940;5.282;2023-06-10T10:38:24;36.10;59.70
27667;DHT22;15074;50.940;5.282;2023-06-10T10:40:51;36.00;59.00
27667;DHT22;15074;50.940;5.282;2023-06-10T10:43:17;36.40;58.80
27667;DHT22;15074;50.940;5.282;2023-06-10T10:45:46;34.80;61.20
27667;DHT22;15074;50.940;5.282;2023-06-10T10:48:12;33.70;63.60
27667;DHT22;15074;50.940;5.282;2023-06-10T10:50:39;33.80;61.30
27667;DHT22;15074;50.940;5.282;2023-06-10T10:53:06;33.80;61.30
27667;DHT22;15074;50.940;5.282;2023-06-10T10:55:32;34.30;63.40
27667;DHT22;15074;50.940;5.282;2023-06-10T10:58:02;33.60;61.00
27667;DHT22;15074;50.940;5.282;2023-06-10T11:00:43;32.70;61.30
27667;DHT22;15074;50.940;5.282;2023-06-10T11:03:14;33.30;60.20
27667;DHT22;15074;50.940;5.282;2023-06-10T11:05:42;33.60;60.30
27667;DHT22;15074;50.940;5.282;2023-06-10T11:08:10;34.00;60.80
27667;DHT22;15074;50.940;5.282;2023-06-10T11:10:38;34.50;59.40
27667;DHT22;15074;50.940;5.282;2023-06-10T11:13:07;34.00;60.40
27667;DHT22;15074;50.940;5.282;2023-06-10T11:15:38;33.00;61.00
27667;DHT22;15074;50.940;5.282;2023-06-10T11:18:28;32.90;63.10
27667;DHT22;15074;50.940;5.282;2023-06-10T11:28:38;33.90;58.70
27667;DHT22;15074;50.940;5.282;2023-06-10T11:31:04;33.80;59.90
27667;DHT22;15074;50.940;5.282;2023-06-10T11:33:29;32.80;59.30
27667;DHT22;15074;50.940;5.282;2023-06-10T11:35:56;32.70;60.10
27667;DHT22;15074;50.940;5.282;2023-06-10T11:38:24;32.10;58.30
27667;DHT22;15074;50.940;5.282;2023-06-10T11:40:50;32.30;59.30
27667;DHT22;15074;50.940;5.282;2023-06-10T11:43:17;32.20;60.20
27667;DHT22;15074;50.940;5.282;2023-06-10T11:45:43;31.70;61.00
27667;DHT22;15074;50.940;5.282;2023-06-10T11:48:10;31.80;62.40
27667;DHT22;15074;50.940;5.282;2023-06-10T11:50:36;32.40;61.90
27667;DHT22;15074;50.940;5.282;2023-06-10T11:53:07;33.40;61.20
27667;DHT22;15074;50.940;5.282;2023-06-10T11:55:46;34.40;60.90
27667;DHT22;15074;50.940;5.282;2023-06-10T12:00:49;35.00;57.20
27667;DHT22;15074;50.940;5.282;2023-06-10T12:03:15;34.90;59.10
27667;DHT22;15074;50.940;5.282;2023-06-10T12:05:58;34.80;58.80
27667;DHT22;15074;50.940;5.282;2023-06-10T12:08:24;35.90;56.50
27667;DHT22;15074;50.940;5.282;2023-06-10T12:10:50;34.20;56.00
27667;DHT22;15074;50.940;5.282;2023-06-10T12:13:16;33.40;56.70
27667;DHT22;15074;50.940;5.282;2023-06-10T12:15:46;33.30;57.50
27667;DHT22;15074;50.940;5.282;2023-06-10T12:20:44;34.20;56.60
27667;DHT22;15074;50.940;5.282;2023-06-10T12:23:11;34.10;55.90
27667;DHT22;15074;50.940;5.282;2023-06-10T12:25:37;33.70;58.10
27667;DHT22;15074;50.940;5.282;2023-06-10T12:28:04;34.30;55.90
27667;DHT22;15074;50.940;5.282;2023-06-10T12:30:29;33.30;55.70
27667;DHT22;15074;50.940;5.282;2023-06-10T12:32:55;33.80;58.00
27667;DHT22;15074;50.940;5.282;2023-06-10T12:35:23;34.00;57.90
27667;DHT22;15074;50.940;5.282;2023-06-10T12:38:03;34.10;58.10
27667;DHT22;15074;50.940;5.282;2023-06-10T12:40:33;34.30;57.20
27667;DHT22;15074;50.940;5.282;2023-06-10T12:42:59;34.30;56.40
27667;DHT22;15074;50.940;5.282;2023-06-10T12:45:38;34.10;57.40
27667;DHT22;15074;50.940;5.282;2023-06-10T12:48:11;34.70;56.70
27667;DHT22;15074;50.940;5.282;2023-06-10T12:50:39;35.50;55.30
27667;DHT22;15074;50.940;5.282;2023-06-10T12:53:05;35.40;54.80
27667;DHT22;15074;50.940;5.282;2023-06-10T12:55:31;35.10;54.30
27667;DHT22;15074;50.940;5.282;2023-06-10T12:57:58;34.70;53.20
27667;DHT22;15074;50.940;5.282;2023-06-10T13:00:24;34.10;54.10
27667;DHT22;15074;50.940;5.282;2023-06-10T13:02:52;34.30;55.70
27667;DHT22;15074;50.940;5.282;2023-06-10T13:05:19;33.20;55.80
27667;DHT22;15074;50.940;5.282;2023-06-10T13:07:46;33.50;55.80
27667;DHT22;15074;50.940;5.282;2023-06-10T13:10:13;34.20;56.00
27667;DHT22;15074;50.940;5.282;2023-06-10T13:12:39;33.60;55.80
27667;DHT22;15074;50.940;5.282;2023-06-10T13:15:05;33.40;55.60
27667;DHT22;15074;50.940;5.282;2023-06-10T13:17:31;34.00;56.30
27667;DHT22;15074;50.940;5.282;2023-06-10T13:19:57;34.20;55.30
27667;DHT22;15074;50.940;5.282;2023-06-10T13:22:22;33.80;53.60
27667;DHT22;15074;50.940;5.282;2023-06-10T13:24:49;34.30;54.30
27667;DHT22;15074;50.940;5.282;2023-06-10T13:27:16;33.60;55.50
27667;DHT22;15074;50.940;5.282;2023-06-10T13:29:43;34.40;55.90
27667;DHT22;15074;50.940;5.282;2023-06-10T13:32:08;34.50;55.50
27667;DHT22;15074;50.940;5.282;2023-06-10T13:34:35;34.00;56.30
27667;DHT22;15074;50.940;5.282;2023-06-10T13:37:01;32.80;55.80
27667;DHT22;15074;50.940;5.282;2023-06-10T13:39:29;32.20;57.10
27667;DHT22;15074;50.940;5.282;2023-06-10T13:41:55;31.90;56.20
27667;DHT22;15074;50.940;5.282;2023-06-10T13:44:20;32.00;56.10
27667;DHT22;15074;50.940;5.282;2023-06-10T13:46:46;32.30;57.00
27667;DHT22;15074;50.940;5.282;2023-06-10T13:49:12;32.40;56.90
27667;DHT22;15074;50.940;5.282;2023-06-10T13:51:37;31.80;56.00
27667;DHT22;15074;50.940;5.282;2023-06-10T13:54:03;31.50;56.70
27667;DHT22;15074;50.940;5.282;2023-06-10T13:56:29;31.80;57.70
27667;DHT22;15074;50.940;5.282;2023-06-10T13:58:54;32.20;58.10
27667;DHT22;15074;50.940;5.282;2023-06-10T14:01:20;32.50;58.50
27667;DHT22;15074;50.940;5.282;2023-06-10T14:03:46;31.90;57.40
27667;DHT22;15074;50.940;5.282;2023-06-10T14:06:12;31.70;58.20
27667;DHT22;15074;50.940;5.282;2023-06-10T14:08:40;31.70;57.70
27667;DHT22;15074;50.940;5.282;2023-06-10T14:11:06;32.00;56.80
27667;DHT22;15074;50.940;5.282;2023-06-10T14:13:32;32.00;57.40
27667;DHT22;15074;50.940;5.282;2023-06-10T14:15:59;32.30;55.70
27667;DHT22;15074;50.940;5.282;2023-06-10T14:18:28;32.10;55.20
27667;DHT22;15074;50.940;5.282;2023-06-10T14:20:53;32.00;53.20
27667;DHT22;15074;50.940;5.282;2023-06-10T14:23:19;31.80;54.90
27667;DHT22;15074;50.940;5.282;2023-06-10T14:25:45;32.20;55.50
27667;DHT22;15074;50.940;5.282;2023-06-10T14:28:10;32.00;55.70
27667;DHT22;15074;50.940;5.282;2023-06-10T14:30:36;32.30;56.40
27667;DHT22;15074;50.940;5.282;2023-06-10T14:33:02;32.80;54.80
27667;DHT22;15074;50.940;5.282;2023-06-10T14:35:27;32.10;55.80
27667;DHT22;15074;50.940;5.282;2023-06-10T14:37:53;31.80;57.30
27667;DHT22;15074;50.940;5.282;2023-06-10T14:40:19;31.50;57.30
27667;DHT22;15074;50.940;5.282;2023-06-10T14:42:48;32.00;57.10
27667;DHT22;15074;50.940;5.282;2023-06-10T14:45:14;31.90;57.10
27667;DHT22;15074;50.940;5.282;2023-06-10T14:47:40;31.90;56.90
27667;DHT22;15074;50.940;5.282;2023-06-10T14:50:06;32.30;57.20
27667;DHT22;15074;50.940;5.282;2023-06-10T14:52:32;31.80;56.60
27667;DHT22;15074;50.940;5.282;2023-06-10T14:54:58;31.80;56.90
27667;DHT22;15074;50.940;5.282;2023-06-10T14:57:24;32.00;57.50
27667;DHT22;15074;50.940;5.282;2023-06-10T14:59:49;32.30;56.90
27667;DHT22;15074;50.940;5.282;2023-06-10T15:02:15;32.20;56.60
27667;DHT22;15074;50.940;5.282;2023-06-10T15:04:41;31.60;56.90
27667;DHT22;15074;50.940;5.282;2023-06-10T15:07:06;31.30;57.00
27667;DHT22;15074;50.940;5.282;2023-06-10T15:09:32;31.50;58.60
27667;DHT22;15074;50.940;5.282;2023-06-10T15:11:58;31.50;58.90
27667;DHT22;15074;50.940;5.282;2023-06-10T15:14:25;31.50;57.50
27667;DHT22;15074;50.940;5.282;2023-06-10T15:16:51;31.40;57.80
27667;DHT22;15074;50.940;5.282;2023-06-10T15:19:17;31.30;58.20
27667;DHT22;15074;50.940;5.282;2023-06-10T15:21:43;31.40;58.80
27667;DHT22;15074;50.940;5.282;2023-06-10T15:24:08;31.30;60.00
27667;DHT22;15074;50.940;5.282;2023-06-10T15:26:34;31.60;61.30
27667;DHT22;15074;50.940;5.282;2023-06-10T15:29:00;31.70;62.60
27667;DHT22;15074;50.940;5.282;2023-06-10T15:31:31;32.00;62.20
27667;DHT22;15074;50.940;5.282;2023-06-10T15:33:58;32.20;62.40
27667;DHT22;15074;50.940;5.282;2023-06-10T15:36:24;32.40;61.00
27667;DHT22;15074;50.940;5.282;2023-06-10T15:38:51;32.30;60.50
27667;DHT22;15074;50.940;5.282;2023-06-10T15:41:17;32.10;61.30
27667;DHT22;15074;50.940;5.282;2023-06-10T15:43:42;31.60;61.60